Pride Of Burgundy — MQSQ9 — position and weather

sailwx.info

Track history (hours):
 
Tides and Currents Weather Stations Pressure Air Temp Water Temp Dewpoint Dewpoint Depression Visibility Wind Speed Wind Dir Waves Ship Positions

Pride Of Burgundy

Operator: P & O Ferries

Last reported at 2018-Jul-22 07:01 UTC. Time now 2018-Jul-22 07:02 UTC.
Position N 50°59' E 001°43'.

Length 180 m; draft 6.2 m.

Type: Passenger vessel. MMSI: 232001470.

Date/timePositionNaut miles runAvg speedWind from/ knotsBaromVisibWave heightAir tempDewpointWater temp
2018-Jul-22 07:01N 50°59' E 001°43'5 9.7
2018-Jul-22 06:30N 50°58' E 001°51'0 0.0
2018-Jul-22 06:00N 50°58' E 001°51'0 0.7
2018-Jul-22 05:30N 50°58' E 001°52'0 0.7
2018-Jul-22 05:00N 50°58' E 001°52'0 0.0
2018-Jul-22 04:30N 50°58' E 001°52'0 0.0
2018-Jul-22 04:00N 50°58' E 001°52'0 0.0
2018-Jul-22 03:31N 50°58' E 001°52'0 0.0
2018-Jul-22 03:00N 50°58' E 001°52'0 0.0
2018-Jul-22 02:30N 50°58' E 001°52'1 1.1
2018-Jul-22 02:00N 50°58' E 001°51'0 0.8
2018-Jul-22 01:31N 50°58' E 001°51'714.0
2018-Jul-22 01:01N 50°58' E 001°40'816.4
2018-Jul-22 00:30N 51°03' E 001°29'711.9
2018-Jul-21 23:53N 51°07' E 001°20'0 0.0
2018-Jul-21 23:25N 51°07' E 001°20'1 2.4
2018-Jul-21 23:00N 51°07' E 001°22'815.2
2018-Jul-21 22:30N 51°05' E 001°33'816.6
2018-Jul-21 22:00N 50°60' E 001°43'510.6
2018-Jul-21 21:30N 50°58' E 001°51'0 0.0
2018-Jul-21 21:00N 50°58' E 001°51'0 0.0
2018-Jul-21 20:30N 50°58' E 001°51'0 0.0
2018-Jul-21 20:00N 50°58' E 001°51'3 6.7
2018-Jul-21 19:30N 50°58' E 001°46'511.0
2018-Jul-21 19:01N 50°60' E 001°37'1019.6
2018-Jul-21 18:30N 51°05' E 001°25'4 6.2
2018-Jul-21 17:56N 51°07' E 001°20'0 0.7
2018-Jul-21 17:30N 51°07' E 001°20'715.0
2018-Jul-21 17:00N 51°04' E 001°31'917.7
2018-Jul-21 16:30N 50°59' E 001°43'510.5
2018-Jul-21 16:00N 50°58' E 001°51'0 0.0
2018-Jul-21 15:30N 50°58' E 001°51'510.5
2018-Jul-21 15:01N 50°58' E 001°43'917.5
2018-Jul-21 14:30N 51°02' E 001°31'9 8.6
2018-Jul-21 13:31N 51°07' E 001°20'0 0.2
2018-Jul-21 13:00N 51°07' E 001°20'612.7
2018-Jul-21 12:31N 51°05' E 001°30'1019.1
2018-Jul-21 12:00N 50°59' E 001°41'713.2
2018-Jul-21 11:31N 50°58' E 001°52'0 0.1
2018-Jul-21 11:01N 50°58' E 001°52'1 1.4
2018-Jul-21 10:31N 50°58' E 001°51'917.1
2018-Jul-21 10:01N 50°59' E 001°37'1019.2
2018-Jul-21 09:30N 51°05' E 001°25'4 7.5
2018-Jul-21 09:00N 51°07' E 001°20'0 0.0
2018-Jul-21 08:30N 51°07' E 001°20'3 6.4
2018-Jul-21 08:00N 51°07' E 001°25'918.4
2018-Jul-21 07:30N 51°02' E 001°37'816.4
2018-Jul-21 07:01N 50°58' E 001°49'1 2.5
2018-Jul-21 06:30N 50°58' E 001°51'0 0.0
2018-Jul-21 06:00N 50°58' E 001°51'510.8
2018-Jul-21 05:31N 50°58' E 001°42'1019.6
2018-Jul-21 05:01N 51°02' E 001°28'713.5
2018-Jul-21 04:28N 51°07' E 001°20'0 0.0
2018-Jul-21 04:00N 51°07' E 001°20'0 0.3
2018-Jul-21 03:30N 51°07' E 001°20'5 9.8
2018-Jul-21 03:00N 51°06' E 001°28'611.2
2018-Jul-21 02:30N 51°03' E 001°35'713.6
2018-Jul-21 02:00N 50°59' E 001°43'5 9.7
2018-Jul-21 01:31N 50°58' E 001°51'0 0.0
2018-Jul-21 01:00N 50°58' E 001°51'0 0.0
2018-Jul-21 00:31N 50°58' E 001°51'0 0.0
2018-Jul-21 00:00N 50°58' E 001°51'0 0.0
2018-Jul-20 23:31N 50°58' E 001°51'0 0.0
2018-Jul-20 23:01N 50°58' E 001°51'0 0.0
2018-Jul-20 22:30N 50°58' E 001°51'0 0.0
2018-Jul-20 22:01N 50°58' E 001°51'0 0.0
2018-Jul-20 21:30N 50°58' E 001°51'0 0.0
2018-Jul-20 21:00N 50°58' E 001°51'0 0.0
2018-Jul-20 20:31N 50°58' E 001°51'0 0.0
2018-Jul-20 20:01N 50°58' E 001°51'0 0.4
2018-Jul-20 19:30N 50°58' E 001°51'817.0
2018-Jul-20 19:00N 51°01' E 001°38'1019.8
2018-Jul-20 18:30N 51°06' E 001°24'3 5.0
2018-Jul-20 17:54N 51°07' E 001°20'0 0.1
2018-Jul-20 17:29N 51°07' E 001°20'613.4
2018-Jul-20 17:01N 51°05' E 001°30'918.9
2018-Jul-20 16:30N 51°00' E 001°42'611.9
2018-Jul-20 16:00N 50°58' E 001°51'0 0.0
2018-Jul-20 15:31N 50°58' E 001°51'4 8.0
2018-Jul-20 15:00N 50°58' E 001°45'918.2
2018-Jul-20 14:31N 51°01' E 001°31'918.5
2018-Jul-20 14:00N 51°07' E 001°20'1 1.0
2018-Jul-20 13:20N 51°07' E 001°20'0 0.2
2018-Jul-20 12:59N 51°07' E 001°20'715.3
2018-Jul-20 12:30N 51°05' E 001°31'1019.0
2018-Jul-20 12:00N 50°59' E 001°42'611.4
2018-Jul-20 11:30N 50°58' E 001°51'0 0.0
2018-Jul-20 11:00N 50°58' E 001°51'1 1.1
2018-Jul-20 10:31N 50°58' E 001°50'916.9
2018-Jul-20 10:00N 50°59' E 001°37'1019.4
2018-Jul-20 09:30N 51°05' E 001°25'4 7.7
2018-Jul-20 08:58N 51°07' E 001°20'0 0.0
2018-Jul-20 08:30N 51°07' E 001°20'0 0.4
2018-Jul-20 08:00N 51°07' E 001°20'714.9
2018-Jul-20 07:31N 51°04' E 001°31'918.9
2018-Jul-20 07:00N 50°59' E 001°43'510.0
2018-Jul-20 06:31N 50°58' E 001°51'0 0.0
2018-Jul-20 06:01N 50°58' E 001°51'1 1.9
2018-Jul-20 05:31N 50°58' E 001°50'1019.3
2018-Jul-20 05:01N 51°00' E 001°35'918.9
2018-Jul-20 04:31N 51°06' E 001°23'2 4.2
2018-Jul-20 04:00N 51°07' E 001°20'0 0.4
2018-Jul-20 03:30N 51°07' E 001°20'611.2
2018-Jul-20 03:00N 51°05' E 001°28'714.6
2018-Jul-20 02:30N 51°00' E 001°37'713.7
2018-Jul-20 02:00N 50°58' E 001°48'2 4.3
2018-Jul-20 01:31N 50°58' E 001°51'0 0.0
2018-Jul-20 01:00N 50°58' E 001°51'0 0.0
2018-Jul-20 00:30N 50°58' E 001°51'0 0.0
2018-Jul-20 00:00N 50°58' E 001°51'0 0.0
2018-Jul-19 23:31N 50°58' E 001°51'0 0.0
2018-Jul-19 23:01N 50°58' E 001°51'0 0.0
2018-Jul-19 22:30N 50°58' E 001°51'0 0.0
2018-Jul-19 22:01N 50°58' E 001°51'0 0.0
2018-Jul-19 21:30N 50°58' E 001°51'0 0.0
2018-Jul-19 21:00N 50°58' E 001°51'0 0.0
2018-Jul-19 20:31N 50°58' E 001°51'0 0.1
2018-Jul-19 20:01N 50°58' E 001°51'714.8
2018-Jul-19 19:30N 50°59' E 001°39'919.0
2018-Jul-19 19:00N 51°05' E 001°27'510.2
2018-Jul-19 18:30N 51°07' E 001°20'0 0.0
2018-Jul-19 17:58N 51°07' E 001°20'1 1.7
2018-Jul-19 17:30N 51°07' E 001°21'917.7
2018-Jul-19 17:00N 51°05' E 001°35'918.5
2018-Jul-19 16:31N 50°58' E 001°45'4 7.6
2018-Jul-19 16:00N 50°58' E 001°51'0 0.0
2018-Jul-19 15:30N 50°58' E 001°51'3 6.2
2018-Jul-19 15:00N 50°58' E 001°46'918.6
2018-Jul-19 14:30N 51°01' E 001°32'10 9.8
2018-Jul-19 13:30N 51°07' E 001°20'0 0.0
2018-Jul-19 12:58N 51°07' E 001°20'3 7.4
2018-Jul-19 12:31N 51°06' E 001°25'1019.2
2018-Jul-19 12:00N 51°01' E 001°38'917.3
2018-Jul-19 11:30N 50°58' E 001°51'0 0.4
2018-Jul-19 11:00N 50°58' E 001°51'0 0.0
2018-Jul-19 10:30N 50°58' E 001°51'714.4
2018-Jul-19 10:01N 50°59' E 001°40'918.9
2018-Jul-19 09:31N 51°05' E 001°28'611.3
2018-Jul-19 09:00N 51°07' E 001°20'0 0.0
2018-Jul-19 08:30N 51°07' E 001°20'0 0.2
2018-Jul-19 07:59N 51°07' E 001°20'713.6
2018-Jul-19 07:30N 51°06' E 001°30'1019.1
2018-Jul-19 07:00N 50°59' E 001°42'612.1
2018-Jul-19 06:30N 50°58' E 001°51'0 0.0
2018-Jul-19 06:00N 50°58' E 001°51'1 1.2
2018-Jul-19 05:30N 50°58' E 001°50'918.6
2018-Jul-19 05:00N 51°00' E 001°36'918.9
2018-Jul-19 04:30N 51°06' E 001°24'3 5.6
2018-Jul-19 04:00N 51°07' E 001°20'0 0.0
2018-Jul-19 03:30N 51°07' E 001°20'4 7.5
2018-Jul-19 03:01N 51°06' E 001°26'815.9
2018-Jul-19 02:30N 51°02' E 001°36'815.9
2018-Jul-19 02:00N 50°58' E 001°47'3 5.5
2018-Jul-19 01:30N 50°58' E 001°52'0 0.0
2018-Jul-19 01:01N 50°58' E 001°52'0 0.0
2018-Jul-19 00:31N 50°58' E 001°52'0 0.0
2018-Jul-19 00:00N 50°58' E 001°52'0 0.0
2018-Jul-18 23:30N 50°58' E 001°52'0 0.0
2018-Jul-18 23:01N 50°58' E 001°52'0 0.0
2018-Jul-18 22:31N 50°58' E 001°52'0 0.0
2018-Jul-18 22:01N 50°58' E 001°52'0 0.0
2018-Jul-18 21:31N 50°58' E 001°52'0 0.0
2018-Jul-18 21:00N 50°58' E 001°52'0 0.0
2018-Jul-18 20:30N 50°58' E 001°52'0 0.2
2018-Jul-18 20:00N 50°58' E 001°51'713.4
2018-Jul-18 19:30N 50°59' E 001°41'1019.5
2018-Jul-18 19:00N 51°04' E 001°28'612.0
2018-Jul-18 18:30N 51°07' E 001°20'0 0.0
2018-Jul-18 18:00N 51°07' E 001°20'2 4.4
2018-Jul-18 17:31N 51°07' E 001°24'917.8
2018-Jul-18 17:00N 51°03' E 001°36'917.2
2018-Jul-18 16:31N 50°58' E 001°47'2 4.7
2018-Jul-18 16:00N 50°58' E 001°51'0 0.0
2018-Jul-18 15:30N 50°58' E 001°51'713.2
2018-Jul-18 15:01N 50°59' E 001°41'1019.5
2018-Jul-18 14:31N 51°04' E 001°27'6 5.7
2018-Jul-18 13:30N 51°07' E 001°20'0 0.4
2018-Jul-18 13:01N 51°07' E 001°20'816.7
2018-Jul-18 12:30N 51°05' E 001°33'918.9
2018-Jul-18 12:00N 50°58' E 001°44'4 8.8
2018-Jul-18 11:31N 50°58' E 001°51'3 2.6
2018-Jul-18 10:30N 50°58' E 001°47'817.0
2018-Jul-18 10:00N 51°01' E 001°35'918.6
2018-Jul-18 09:31N 51°07' E 001°22'2 3.2
2018-Jul-18 09:00N 51°07' E 001°20'0 0.0
2018-Jul-18 08:30N 51°07' E 001°20'3 5.9
2018-Jul-18 08:00N 51°07' E 001°25'919.0
2018-Jul-18 07:30N 51°03' E 001°38'817.0
2018-Jul-18 07:01N 50°58' E 001°50'1 1.5
2018-Jul-18 06:30N 50°58' E 001°51'0 0.0
2018-Jul-18 06:00N 50°58' E 001°51'2 3.7
2018-Jul-18 05:31N 50°58' E 001°48'918.7
2018-Jul-18 05:00N 51°01' E 001°34'1019.3
2018-Jul-18 04:31N 51°07' E 001°22'1 1.8
2018-Jul-18 03:57N 51°07' E 001°20'0 0.0
2018-Jul-18 03:28N 51°07' E 001°20'1 1.5
2018-Jul-18 03:01N 51°07' E 001°21'714.1
2018-Jul-18 02:30N 51°05' E 001°32'816.6
2018-Jul-18 02:01N 50°60' E 001°42'611.8
2018-Jul-18 01:31N 50°58' E 001°51'0 0.1
2018-Jul-18 01:00N 50°58' E 001°51'0 0.0
2018-Jul-18 00:31N 50°58' E 001°51'0 0.0
2018-Jul-18 00:00N 50°58' E 001°51'0 0.0
2018-Jul-17 23:31N 50°58' E 001°51'0 0.0
2018-Jul-17 23:00N 50°58' E 001°51'0 0.0
2018-Jul-17 22:31N 50°58' E 001°51'0 0.0
2018-Jul-17 22:00N 50°58' E 001°51'0 0.0
2018-Jul-17 21:30N 50°58' E 001°51'0 0.0
2018-Jul-17 21:01N 50°58' E 001°51'0 0.0
2018-Jul-17 20:31N 50°58' E 001°51'4 8.5
2018-Jul-17 20:00N 50°58' E 001°44'918.7
2018-Jul-17 19:30N 51°02' E 001°31'917.0
2018-Jul-17 19:00N 51°07' E 001°20'0 0.0
2018-Jul-17 18:30N 51°07' E 001°20'0 0.4
2018-Jul-17 18:00N 51°07' E 001°20'714.4
2018-Jul-17 17:30N 51°05' E 001°31'918.2
2018-Jul-17 17:00N 50°59' E 001°43'510.8
2018-Jul-17 16:31N 50°58' E 001°51'0 0.0
2018-Jul-17 16:00N 50°58' E 001°51'1 2.1
2018-Jul-17 15:30N 50°58' E 001°49'1019.8
2018-Jul-17 15:00N 51°00' E 001°34'1019.3
2018-Jul-17 14:30N 51°06' E 001°22'2 2.7
2018-Jul-17 13:49N 51°07' E 001°20'0 0.0
2018-Jul-17 13:30N 51°07' E 001°20'2 5.0
2018-Jul-17 13:00N 51°07' E 001°24'918.2
2018-Jul-17 12:30N 51°02' E 001°36'917.5
2018-Jul-17 12:00N 50°58' E 001°49'1 2.6
2018-Jul-17 11:30N 50°58' E 001°51'0 0.0
2018-Jul-17 11:00N 50°58' E 001°51'3 6.0
2018-Jul-17 10:30N 50°58' E 001°46'816.6
2018-Jul-17 10:01N 51°01' E 001°34'918.3
2018-Jul-17 09:31N 51°06' E 001°22'2 3.2
2018-Jul-17 08:59N 51°07' E 001°20'0 0.0
2018-Jul-17 08:30N 51°07' E 001°20'2 4.5
2018-Jul-17 08:00N 51°07' E 001°24'918.5
2018-Jul-17 07:30N 51°02' E 001°36'918.0
2018-Jul-17 07:00N 50°58' E 001°49'1 2.6
2018-Jul-17 06:30N 50°58' E 001°51'0 0.0
2018-Jul-17 06:00N 50°58' E 001°51'3 6.8
2018-Jul-17 05:30N 50°58' E 001°46'919.1
2018-Jul-17 05:01N 51°02' E 001°32'918.1
2018-Jul-17 04:30N 51°07' E 001°20'0 0.2
2018-Jul-17 03:53N 51°07' E 001°20'0 0.0
2018-Jul-17 03:25N 51°07' E 001°20'2 4.1
2018-Jul-17 03:01N 51°07' E 001°23'715.0
2018-Jul-17 02:31N 51°04' E 001°33'815.8
2018-Jul-17 02:01N 50°59' E 001°44'5 9.6
2018-Jul-17 01:30N 50°58' E 001°51'0 0.0
2018-Jul-17 01:00N 50°58' E 001°51'0 0.0
2018-Jul-17 00:30N 50°58' E 001°51'0 0.0
2018-Jul-16 23:30N 50°58' E 001°51'0 0.0
2018-Jul-16 23:00N 50°58' E 001°51'0 0.0
2018-Jul-16 22:30N 50°58' E 001°51'0 0.0
2018-Jul-16 22:00N 50°58' E 001°51'0 0.0
2018-Jul-16 21:30N 50°58' E 001°51'0 0.0
2018-Jul-16 21:00N 50°58' E 001°51'0 0.0
2018-Jul-16 20:30N 50°58' E 001°51'2 3.9
2018-Jul-16 20:01N 50°58' E 001°48'917.0
2018-Jul-16 19:31N 51°01' E 001°35'1019.1
2018-Jul-16 19:01N 51°07' E 001°23'2 3.6
2018-Jul-16 18:30N 51°07' E 001°20'0 0.0
2018-Jul-16 17:59N 51°07' E 001°20'1 2.1
2018-Jul-16 17:30N 51°07' E 001°22'816.5
2018-Jul-16 17:00N 51°04' E 001°34'714.4
2018-Jul-16 16:30N 50°59' E 001°42'611.0
2018-Jul-16 16:00N 50°58' E 001°51'0 0.0
2018-Jul-16 15:30N 50°58' E 001°51'0 0.6
2018-Jul-16 15:00N 50°58' E 001°51'918.6
2018-Jul-16 14:30N 51°00' E 001°36'1019.4
2018-Jul-16 14:00N 51°06' E 001°24'3 5.4
2018-Jul-16 13:30N 51°07' E 001°20'0 0.0
2018-Jul-16 13:00N 51°07' E 001°20'5 9.8
2018-Jul-16 12:30N 51°06' E 001°27'1019.1
2018-Jul-16 12:00N 51°01' E 001°40'714.8
2018-Jul-16 11:31N 50°58' E 001°51'0 0.1
2018-Jul-16 11:00N 50°58' E 001°51'0 0.7
2018-Jul-16 10:31N 50°58' E 001°51'816.6
2018-Jul-16 10:01N 50°59' E 001°37'919.0
2018-Jul-16 09:31N 51°05' E 001°26'4 7.8
2018-Jul-16 08:58N 51°07' E 001°20'0 0.0
2018-Jul-16 08:26N 51°07' E 001°20'3 5.9
2018-Jul-16 08:00N 51°07' E 001°24'1019.4
2018-Jul-16 07:30N 51°01' E 001°37'918.2
2018-Jul-16 07:01N 50°58' E 001°50'0 0.9
2018-Jul-16 06:31N 50°58' E 001°51'0 0.0
2018-Jul-16 06:01N 50°58' E 001°51'0 0.0
2018-Jul-16 05:31N 50°58' E 001°51'0 0.0
2018-Jul-16 05:00N 50°58' E 001°51'0 0.0
2018-Jul-16 04:31N 50°58' E 001°51'0 0.0
2018-Jul-16 04:01N 50°58' E 001°51'0 0.0
2018-Jul-16 03:31N 50°58' E 001°51'0 0.0
2018-Jul-16 03:01N 50°58' E 001°51'0 0.0
2018-Jul-16 02:30N 50°58' E 001°51'0 0.0
2018-Jul-16 02:01N 50°58' E 001°51'0 0.0
2018-Jul-16 01:31N 50°58' E 001°51'0 0.0
2018-Jul-16 01:01N 50°58' E 001°51'0 0.0
2018-Jul-16 00:31N 50°58' E 001°51'0 0.0
2018-Jul-16 00:01N 50°58' E 001°51'0 0.0
2018-Jul-15 23:30N 50°58' E 001°51'0 0.0
2018-Jul-15 23:00N 50°58' E 001°51'0 0.0
2018-Jul-15 22:30N 50°58' E 001°51'0 0.0
2018-Jul-15 22:01N 50°58' E 001°51'0 0.0
2018-Jul-15 21:31N 50°58' E 001°51'0 0.5
2018-Jul-15 21:00N 50°58' E 001°51'0 0.1
2018-Jul-15 20:31N 50°58' E 001°51'0 0.0
2018-Jul-15 20:00N 50°58' E 001°51'2 3.0
2018-Jul-15 19:30N 50°58' E 001°49'816.6
2018-Jul-15 19:01N 50°60' E 001°36'1019.4
2018-Jul-15 18:30N 51°06' E 001°24'3 5.6
2018-Jul-15 17:59N 51°07' E 001°20'0 0.2
2018-Jul-15 17:29N 51°07' E 001°20'715.3
2018-Jul-15 17:00N 51°06' E 001°31'816.5
2018-Jul-15 16:30N 50°60' E 001°41'713.4
2018-Jul-15 16:00N 50°58' E 001°51'0 0.0
2018-Jul-15 15:30N 50°58' E 001°51'1 1.5
2018-Jul-15 15:00N 50°58' E 001°50'919.1
2018-Jul-15 14:31N 51°00' E 001°35'1019.2
2018-Jul-15 14:01N 51°06' E 001°23'2 4.3
2018-Jul-15 13:28N 51°07' E 001°20'0 0.1
2018-Jul-15 13:01N 51°07' E 001°20'714.2
2018-Jul-15 12:30N 51°05' E 001°30'918.7
2018-Jul-15 12:00N 50°59' E 001°43'510.6
2018-Jul-15 11:31N 50°58' E 001°51'0 0.0
2018-Jul-15 11:01N 50°58' E 001°51'2 3.3
2018-Jul-15 10:30N 50°58' E 001°48'917.8
2018-Jul-15 10:00N 51°01' E 001°35'918.4
2018-Jul-15 09:30N 51°06' E 001°22'2 4.6
2018-Jul-15 09:00N 51°07' E 001°20'0 0.0
2018-Jul-15 08:30N 51°07' E 001°20'1 3.0
2018-Jul-15 08:00N 51°07' E 001°22'1019.9
2018-Jul-15 07:30N 51°03' E 001°36'918.3
2018-Jul-15 07:00N 50°58' E 001°49'1 2.3
2018-Jul-15 06:30N 50°58' E 001°51'0 0.0
2018-Jul-15 06:00N 50°58' E 001°51'0 0.0
2018-Jul-15 05:30N 50°58' E 001°51'0 0.0
2018-Jul-15 05:00N 50°58' E 001°51'0 0.0
2018-Jul-15 04:30N 50°58' E 001°51'0 0.0
2018-Jul-15 04:00N 50°58' E 001°51'0 0.0
2018-Jul-15 03:30N 50°58' E 001°51'0 0.0
2018-Jul-15 03:00N 50°58' E 001°51'0 0.0
2018-Jul-15 02:30N 50°58' E 001°51'0 0.0
2018-Jul-15 02:00N 50°58' E 001°51'0 0.0
2018-Jul-15 01:30N 50°58' E 001°51'0 0.0
2018-Jul-15 01:00N 50°58' E 001°51'0 0.0
2018-Jul-15 00:30N 50°58' E 001°51'0 0.0
2018-Jul-15 00:00N 50°58' E 001°51'0 0.0
2018-Jul-14 23:30N 50°58' E 001°51'0 0.0
2018-Jul-14 23:00N 50°58' E 001°51'0 0.0
2018-Jul-14 22:30N 50°58' E 001°51'0 0.0
2018-Jul-14 22:00N 50°58' E 001°51'0 0.0
2018-Jul-14 21:31N 50°58' E 001°51'0 0.0
2018-Jul-14 21:00N 50°58' E 001°51'0 0.0
2018-Jul-14 20:30N 50°58' E 001°51'0 0.0
2018-Jul-14 20:00N 50°58' E 001°51'714.6
2018-Jul-14 19:30N 50°59' E 001°39'917.9
2018-Jul-14 19:00N 51°03' E 001°27'612.3
2018-Jul-14 18:30N 51°07' E 001°20'0 0.0
2018-Jul-14 18:00N 51°07' E 001°20'612.2
2018-Jul-14 17:31N 51°07' E 001°30'918.5
2018-Jul-14 17:01N 51°00' E 001°40'714.0
2018-Jul-14 16:30N 50°58' E 001°51'0 0.0
2018-Jul-14 16:00N 50°58' E 001°51'4 7.2
2018-Jul-14 15:30N 50°58' E 001°45'917.6
2018-Jul-14 15:00N 51°02' E 001°33'918.8
2018-Jul-14 14:30N 51°07' E 001°20'1 0.8
2018-Jul-14 13:30N 51°07' E 001°20'4 8.4
2018-Jul-14 13:00N 51°06' E 001°27'918.5
2018-Jul-14 12:30N 51°01' E 001°39'815.7
2018-Jul-14 12:00N 50°58' E 001°50'1 1.7
2018-Jul-14 11:30N 50°58' E 001°52'0 0.0
2018-Jul-14 11:00N 50°58' E 001°52'3 6.5
2018-Jul-14 10:31N 50°58' E 001°47'918.1
2018-Jul-14 10:01N 51°01' E 001°33'918.5
2018-Jul-14 09:31N 51°07' E 001°21'1 2.0
2018-Jul-14 09:00N 51°07' E 001°20'0 0.0
2018-Jul-14 08:30N 51°07' E 001°20'5 9.7
2018-Jul-14 08:00N 51°05' E 001°27'1019.5
2018-Jul-14 07:30N 50°60' E 001°40'714.3
2018-Jul-14 07:00N 50°58' E 001°51'0 0.1
2018-Jul-14 06:30N 50°58' E 001°51'0 0.0
2018-Jul-14 06:00N 50°58' E 001°51'510.7
2018-Jul-14 05:30N 50°58' E 001°43'918.4
2018-Jul-14 05:00N 51°03' E 001°30'815.1
2018-Jul-14 04:30N 51°07' E 001°20'0 0.0
2018-Jul-14 04:00N 51°07' E 001°20'0 0.0
2018-Jul-14 03:30N 51°07' E 001°20'0 1.0
2018-Jul-14 03:00N 51°07' E 001°21'815.2
2018-Jul-14 02:30N 51°06' E 001°33'815.5
2018-Jul-14 02:00N 50°60' E 001°41'612.7
2018-Jul-14 01:31N 50°58' E 001°51'0 0.4
2018-Jul-14 01:00N 50°58' E 001°51'0 0.0
2018-Jul-14 00:30N 50°58' E 001°51'0 0.0
2018-Jul-14 00:00N 50°58' E 001°51'0 0.0
2018-Jul-13 23:30N 50°58' E 001°51'0 0.0
2018-Jul-13 23:00N 50°58' E 001°51'0 0.0
2018-Jul-13 22:30N 50°58' E 001°51'0 0.0
2018-Jul-13 22:00N 50°58' E 001°51'0 0.0
2018-Jul-13 21:30N 50°58' E 001°51'0 0.0
2018-Jul-13 21:00N 50°58' E 001°51'0 0.0
2018-Jul-13 20:30N 50°58' E 001°51'1 1.8
2018-Jul-13 20:00N 50°58' E 001°50'816.6
2018-Jul-13 19:30N 50°59' E 001°37'918.5
2018-Jul-13 19:00N 51°05' E 001°25'4 6.2
2018-Jul-13 18:22N 51°07' E 001°20'0 0.0
2018-Jul-13 17:58N 51°07' E 001°20'613.2
2018-Jul-13 17:31N 51°05' E 001°29'1019.7
2018-Jul-13 17:00N 50°59' E 001°42'611.9
2018-Jul-13 16:30N 50°58' E 001°51'0 0.0
2018-Jul-13 16:00N 50°58' E 001°51'1 2.6
2018-Jul-13 15:30N 50°58' E 001°49'612.8
2018-Jul-13 15:00N 50°59' E 001°39'1414.4
2018-Jul-13 14:00N 51°07' E 001°20'0 0.0
2018-Jul-13 13:29N 51°07' E 001°20'1 1.6
2018-Jul-13 13:00N 51°07' E 001°21'917.1
2018-Jul-13 12:30N 51°05' E 001°34'918.3
2018-Jul-13 12:00N 50°58' E 001°45'4 8.0
2018-Jul-13 11:30N 50°58' E 001°51'0 0.0
2018-Jul-13 11:00N 50°58' E 001°51'0 0.7
2018-Jul-13 10:30N 50°58' E 001°51'918.6
2018-Jul-13 10:00N 50°59' E 001°36'918.2
2018-Jul-13 09:30N 51°05' E 001°25'4 7.7
2018-Jul-13 09:00N 51°07' E 001°20'0 0.0
2018-Jul-13 08:30N 51°07' E 001°20'0 0.9
2018-Jul-13 08:00N 51°07' E 001°21'918.1
2018-Jul-13 07:30N 51°04' E 001°34'1019.2
2018-Jul-13 07:00N 50°58' E 001°46'3 6.0
2018-Jul-13 06:31N 50°58' E 001°51'0 0.0
2018-Jul-13 06:00N 50°58' E 001°51'4 8.5
2018-Jul-13 05:30N 50°58' E 001°44'816.9
2018-Jul-13 05:00N 51°01' E 001°32'918.7
2018-Jul-13 04:30N 51°07' E 001°21'1 1.0
2018-Jul-13 03:59N 51°07' E 001°20'0 0.0
2018-Jul-13 03:21N 51°07' E 001°20'1 3.4
2018-Jul-13 03:00N 51°07' E 001°22'714.9
2018-Jul-13 02:30N 51°05' E 001°33'815.4
2018-Jul-13 02:00N 50°59' E 001°41'612.2
2018-Jul-13 01:30N 50°58' E 001°51'0 0.1
2018-Jul-13 01:01N 50°58' E 001°51'0 0.0
2018-Jul-13 00:31N 50°58' E 001°51'0 0.0
2018-Jul-13 00:01N 50°58' E 001°51'0 0.0
2018-Jul-12 23:31N 50°58' E 001°51'0 0.0
2018-Jul-12 23:00N 50°58' E 001°51'0 0.0
2018-Jul-12 22:31N 50°58' E 001°51'0 0.0
2018-Jul-12 22:01N 50°58' E 001°51'0 0.0
2018-Jul-12 21:31N 50°58' E 001°51'0 0.0
2018-Jul-12 21:00N 50°58' E 001°51'0 0.0
2018-Jul-12 20:30N 50°58' E 001°51'2 4.6
2018-Jul-12 20:00N 50°58' E 001°47'917.2
2018-Jul-12 19:31N 50°60' E 001°34'918.7
2018-Jul-12 19:00N 51°06' E 001°23'2 4.3
2018-Jul-12 18:29N 51°07' E 001°20'0 0.0
2018-Jul-12 18:00N 51°07' E 001°20'611.4
2018-Jul-12 17:30N 51°06' E 001°29'1019.3
2018-Jul-12 17:01N 51°00' E 001°41'713.2
2018-Jul-12 16:30N 50°58' E 001°51'0 0.0
2018-Jul-12 16:00N 50°58' E 001°51'0 0.8
2018-Jul-12 15:30N 50°58' E 001°50'714.2
2018-Jul-12 15:00N 50°58' E 001°39'918.5
2018-Jul-12 14:30N 51°05' E 001°28'611.7
2018-Jul-12 14:00N 51°07' E 001°20'2 1.6
2018-Jul-12 12:53N 51°07' E 001°23'616.6
2018-Jul-12 12:31N 51°06' E 001°33'918.3
2018-Jul-12 12:00N 50°59' E 001°43'510.2
2018-Jul-12 11:30N 50°58' E 001°51'0 0.0
2018-Jul-12 11:01N 50°58' E 001°51'0 0.8
2018-Jul-12 10:31N 50°58' E 001°50'917.8
2018-Jul-12 10:01N 51°00' E 001°37'919.0
2018-Jul-12 09:31N 51°06' E 001°24'3 2.1
2018-Jul-12 08:04N 51°07' E 001°20'110.0
2018-Jul-12 07:59N 51°07' E 001°22'918.7
2018-Jul-12 07:30N 51°02' E 001°34'  
Track history (hours):
 
Tides and Currents Weather Stations Pressure Air Temp Water Temp Dewpoint Dewpoint Depression Visibility Wind Speed Wind Dir Waves Ship Positions

Pride Of Burgundy

Operator: P & O Ferries

Last reported at 2018-Jul-22 07:01 UTC. Time now 2018-Jul-22 07:02 UTC.
Position N 50°59' E 001°43'.

Length 180 m; draft 6.2 m.

Type: Passenger vessel. MMSI: 232001470.

Date/timePositionNaut miles runAvg speedWind from/ knotsBaromVisibWave heightAir tempDewpointWater temp
2018-Jul-22 07:01N 50°59' E 001°43'5 9.7
2018-Jul-22 06:30N 50°58' E 001°51'0 0.0
2018-Jul-22 06:00N 50°58' E 001°51'0 0.7
2018-Jul-22 05:30N 50°58' E 001°52'0 0.7
2018-Jul-22 05:00N 50°58' E 001°52'0 0.0
2018-Jul-22 04:30N 50°58' E 001°52'0 0.0
2018-Jul-22 04:00N 50°58' E 001°52'0 0.0
2018-Jul-22 03:31N 50°58' E 001°52'0 0.0
2018-Jul-22 03:00N 50°58' E 001°52'0 0.0
2018-Jul-22 02:30N 50°58' E 001°52'1 1.1
2018-Jul-22 02:00N 50°58' E 001°51'0 0.8
2018-Jul-22 01:31N 50°58' E 001°51'714.0
2018-Jul-22 01:01N 50°58' E 001°40'816.4
2018-Jul-22 00:30N 51°03' E 001°29'711.9
2018-Jul-21 23:53N 51°07' E 001°20'0 0.0
2018-Jul-21 23:25N 51°07' E 001°20'1 2.4
2018-Jul-21 23:00N 51°07' E 001°22'815.2
2018-Jul-21 22:30N 51°05' E 001°33'816.6
2018-Jul-21 22:00N 50°60' E 001°43'510.6
2018-Jul-21 21:30N 50°58' E 001°51'0 0.0
2018-Jul-21 21:00N 50°58' E 001°51'0 0.0
2018-Jul-21 20:30N 50°58' E 001°51'0 0.0
2018-Jul-21 20:00N 50°58' E 001°51'3 6.7
2018-Jul-21 19:30N 50°58' E 001°46'511.0
2018-Jul-21 19:01N 50°60' E 001°37'1019.6
2018-Jul-21 18:30N 51°05' E 001°25'4 6.2
2018-Jul-21 17:56N 51°07' E 001°20'0 0.7
2018-Jul-21 17:30N 51°07' E 001°20'715.0
2018-Jul-21 17:00N 51°04' E 001°31'917.7
2018-Jul-21 16:30N 50°59' E 001°43'510.5
2018-Jul-21 16:00N 50°58' E 001°51'0 0.0
2018-Jul-21 15:30N 50°58' E 001°51'510.5
2018-Jul-21 15:01N 50°58' E 001°43'917.5
2018-Jul-21 14:30N 51°02' E 001°31'9 8.6
2018-Jul-21 13:31N 51°07' E 001°20'0 0.2
2018-Jul-21 13:00N 51°07' E 001°20'612.7
2018-Jul-21 12:31N 51°05' E 001°30'1019.1
2018-Jul-21 12:00N 50°59' E 001°41'713.2
2018-Jul-21 11:31N 50°58' E 001°52'0 0.1
2018-Jul-21 11:01N 50°58' E 001°52'1 1.4
2018-Jul-21 10:31N 50°58' E 001°51'917.1
2018-Jul-21 10:01N 50°59' E 001°37'1019.2
2018-Jul-21 09:30N 51°05' E 001°25'4 7.5
2018-Jul-21 09:00N 51°07' E 001°20'0 0.0
2018-Jul-21 08:30N 51°07' E 001°20'3 6.4
2018-Jul-21 08:00N 51°07' E 001°25'918.4
2018-Jul-21 07:30N 51°02' E 001°37'816.4
2018-Jul-21 07:01N 50°58' E 001°49'1 2.5
2018-Jul-21 06:30N 50°58' E 001°51'0 0.0
2018-Jul-21 06:00N 50°58' E 001°51'510.8
2018-Jul-21 05:31N 50°58' E 001°42'1019.6
2018-Jul-21 05:01N 51°02' E 001°28'713.5
2018-Jul-21 04:28N 51°07' E 001°20'0 0.0
2018-Jul-21 04:00N 51°07' E 001°20'0 0.3
2018-Jul-21 03:30N 51°07' E 001°20'5 9.8
2018-Jul-21 03:00N 51°06' E 001°28'611.2
2018-Jul-21 02:30N 51°03' E 001°35'713.6
2018-Jul-21 02:00N 50°59' E 001°43'5 9.7
2018-Jul-21 01:31N 50°58' E 001°51'0 0.0
2018-Jul-21 01:00N 50°58' E 001°51'0 0.0
2018-Jul-21 00:31N 50°58' E 001°51'0 0.0
2018-Jul-21 00:00N 50°58' E 001°51'0 0.0
2018-Jul-20 23:31N 50°58' E 001°51'0 0.0
2018-Jul-20 23:01N 50°58' E 001°51'0 0.0
2018-Jul-20 22:30N 50°58' E 001°51'0 0.0
2018-Jul-20 22:01N 50°58' E 001°51'0 0.0
2018-Jul-20 21:30N 50°58' E 001°51'0 0.0
2018-Jul-20 21:00N 50°58' E 001°51'0 0.0
2018-Jul-20 20:31N 50°58' E 001°51'0 0.0
2018-Jul-20 20:01N 50°58' E 001°51'0 0.4
2018-Jul-20 19:30N 50°58' E 001°51'817.0
2018-Jul-20 19:00N 51°01' E 001°38'1019.8
2018-Jul-20 18:30N 51°06' E 001°24'3 5.0
2018-Jul-20 17:54N 51°07' E 001°20'0 0.1
2018-Jul-20 17:29N 51°07' E 001°20'613.4
2018-Jul-20 17:01N 51°05' E 001°30'918.9
2018-Jul-20 16:30N 51°00' E 001°42'611.9
2018-Jul-20 16:00N 50°58' E 001°51'0 0.0
2018-Jul-20 15:31N 50°58' E 001°51'4 8.0
2018-Jul-20 15:00N 50°58' E 001°45'918.2
2018-Jul-20 14:31N 51°01' E 001°31'918.5
2018-Jul-20 14:00N 51°07' E 001°20'1 1.0
2018-Jul-20 13:20N 51°07' E 001°20'0 0.2
2018-Jul-20 12:59N 51°07' E 001°20'715.3
2018-Jul-20 12:30N 51°05' E 001°31'1019.0
2018-Jul-20 12:00N 50°59' E 001°42'611.4
2018-Jul-20 11:30N 50°58' E 001°51'0 0.0
2018-Jul-20 11:00N 50°58' E 001°51'1 1.1
2018-Jul-20 10:31N 50°58' E 001°50'916.9
2018-Jul-20 10:00N 50°59' E 001°37'1019.4
2018-Jul-20 09:30N 51°05' E 001°25'4 7.7
2018-Jul-20 08:58N 51°07' E 001°20'0 0.0
2018-Jul-20 08:30N 51°07' E 001°20'0 0.4
2018-Jul-20 08:00N 51°07' E 001°20'714.9
2018-Jul-20 07:31N 51°04' E 001°31'918.9
2018-Jul-20 07:00N 50°59' E 001°43'510.0
2018-Jul-20 06:31N 50°58' E 001°51'0 0.0
2018-Jul-20 06:01N 50°58' E 001°51'1 1.9
2018-Jul-20 05:31N 50°58' E 001°50'1019.3
2018-Jul-20 05:01N 51°00' E 001°35'918.9
2018-Jul-20 04:31N 51°06' E 001°23'2 4.2
2018-Jul-20 04:00N 51°07' E 001°20'0 0.4
2018-Jul-20 03:30N 51°07' E 001°20'611.2
2018-Jul-20 03:00N 51°05' E 001°28'714.6
2018-Jul-20 02:30N 51°00' E 001°37'713.7
2018-Jul-20 02:00N 50°58' E 001°48'2 4.3
2018-Jul-20 01:31N 50°58' E 001°51'0 0.0
2018-Jul-20 01:00N 50°58' E 001°51'0 0.0
2018-Jul-20 00:30N 50°58' E 001°51'0 0.0
2018-Jul-20 00:00N 50°58' E 001°51'0 0.0
2018-Jul-19 23:31N 50°58' E 001°51'0 0.0
2018-Jul-19 23:01N 50°58' E 001°51'0 0.0
2018-Jul-19 22:30N 50°58' E 001°51'0 0.0
2018-Jul-19 22:01N 50°58' E 001°51'0 0.0
2018-Jul-19 21:30N 50°58' E 001°51'0 0.0
2018-Jul-19 21:00N 50°58' E 001°51'0 0.0
2018-Jul-19 20:31N 50°58' E 001°51'0 0.1
2018-Jul-19 20:01N 50°58' E 001°51'714.8
2018-Jul-19 19:30N 50°59' E 001°39'919.0
2018-Jul-19 19:00N 51°05' E 001°27'510.2
2018-Jul-19 18:30N 51°07' E 001°20'0 0.0
2018-Jul-19 17:58N 51°07' E 001°20'1 1.7
2018-Jul-19 17:30N 51°07' E 001°21'917.7
2018-Jul-19 17:00N 51°05' E 001°35'918.5
2018-Jul-19 16:31N 50°58' E 001°45'4 7.6
2018-Jul-19 16:00N 50°58' E 001°51'0 0.0
2018-Jul-19 15:30N 50°58' E 001°51'3 6.2
2018-Jul-19 15:00N 50°58' E 001°46'918.6
2018-Jul-19 14:30N 51°01' E 001°32'10 9.8
2018-Jul-19 13:30N 51°07' E 001°20'0 0.0
2018-Jul-19 12:58N 51°07' E 001°20'3 7.4
2018-Jul-19 12:31N 51°06' E 001°25'1019.2
2018-Jul-19 12:00N 51°01' E 001°38'917.3
2018-Jul-19 11:30N 50°58' E 001°51'0 0.4
2018-Jul-19 11:00N 50°58' E 001°51'0 0.0
2018-Jul-19 10:30N 50°58' E 001°51'714.4
2018-Jul-19 10:01N 50°59' E 001°40'918.9
2018-Jul-19 09:31N 51°05' E 001°28'611.3
2018-Jul-19 09:00N 51°07' E 001°20'0 0.0
2018-Jul-19 08:30N 51°07' E 001°20'0 0.2
2018-Jul-19 07:59N 51°07' E 001°20'713.6
2018-Jul-19 07:30N 51°06' E 001°30'1019.1
2018-Jul-19 07:00N 50°59' E 001°42'612.1
2018-Jul-19 06:30N 50°58' E 001°51'0 0.0
2018-Jul-19 06:00N 50°58' E 001°51'1 1.2
2018-Jul-19 05:30N 50°58' E 001°50'918.6
2018-Jul-19 05:00N 51°00' E 001°36'918.9
2018-Jul-19 04:30N 51°06' E 001°24'3 5.6
2018-Jul-19 04:00N 51°07' E 001°20'0 0.0
2018-Jul-19 03:30N 51°07' E 001°20'4 7.5
2018-Jul-19 03:01N 51°06' E 001°26'815.9
2018-Jul-19 02:30N 51°02' E 001°36'815.9
2018-Jul-19 02:00N 50°58' E 001°47'3 5.5
2018-Jul-19 01:30N 50°58' E 001°52'0 0.0
2018-Jul-19 01:01N 50°58' E 001°52'0 0.0
2018-Jul-19 00:31N 50°58' E 001°52'0 0.0
2018-Jul-19 00:00N 50°58' E 001°52'0 0.0
2018-Jul-18 23:30N 50°58' E 001°52'0 0.0
2018-Jul-18 23:01N 50°58' E 001°52'0 0.0
2018-Jul-18 22:31N 50°58' E 001°52'0 0.0
2018-Jul-18 22:01N 50°58' E 001°52'0 0.0
2018-Jul-18 21:31N 50°58' E 001°52'0 0.0
2018-Jul-18 21:00N 50°58' E 001°52'0 0.0
2018-Jul-18 20:30N 50°58' E 001°52'0 0.2
2018-Jul-18 20:00N 50°58' E 001°51'713.4
2018-Jul-18 19:30N 50°59' E 001°41'1019.5
2018-Jul-18 19:00N 51°04' E 001°28'612.0
2018-Jul-18 18:30N 51°07' E 001°20'0 0.0
2018-Jul-18 18:00N 51°07' E 001°20'2 4.4
2018-Jul-18 17:31N 51°07' E 001°24'917.8
2018-Jul-18 17:00N 51°03' E 001°36'917.2
2018-Jul-18 16:31N 50°58' E 001°47'2 4.7
2018-Jul-18 16:00N 50°58' E 001°51'0 0.0
2018-Jul-18 15:30N 50°58' E 001°51'713.2
2018-Jul-18 15:01N 50°59' E 001°41'1019.5
2018-Jul-18 14:31N 51°04' E 001°27'6 5.7
2018-Jul-18 13:30N 51°07' E 001°20'0 0.4
2018-Jul-18 13:01N 51°07' E 001°20'816.7
2018-Jul-18 12:30N 51°05' E 001°33'918.9
2018-Jul-18 12:00N 50°58' E 001°44'4 8.8
2018-Jul-18 11:31N 50°58' E 001°51'3 2.6
2018-Jul-18 10:30N 50°58' E 001°47'817.0
2018-Jul-18 10:00N 51°01' E 001°35'918.6
2018-Jul-18 09:31N 51°07' E 001°22'2 3.2
2018-Jul-18 09:00N 51°07' E 001°20'0 0.0
2018-Jul-18 08:30N 51°07' E 001°20'3 5.9
2018-Jul-18 08:00N 51°07' E 001°25'919.0
2018-Jul-18 07:30N 51°03' E 001°38'817.0
2018-Jul-18 07:01N 50°58' E 001°50'1 1.5
2018-Jul-18 06:30N 50°58' E 001°51'0 0.0
2018-Jul-18 06:00N 50°58' E 001°51'2 3.7
2018-Jul-18 05:31N 50°58' E 001°48'918.7
2018-Jul-18 05:00N 51°01' E 001°34'1019.3
2018-Jul-18 04:31N 51°07' E 001°22'1 1.8
2018-Jul-18 03:57N 51°07' E 001°20'0 0.0
2018-Jul-18 03:28N 51°07' E 001°20'1 1.5
2018-Jul-18 03:01N 51°07' E 001°21'714.1
2018-Jul-18 02:30N 51°05' E 001°32'816.6
2018-Jul-18 02:01N 50°60' E 001°42'611.8
2018-Jul-18 01:31N 50°58' E 001°51'0 0.1
2018-Jul-18 01:00N 50°58' E 001°51'0 0.0
2018-Jul-18 00:31N 50°58' E 001°51'0 0.0
2018-Jul-18 00:00N 50°58' E 001°51'0 0.0
2018-Jul-17 23:31N 50°58' E 001°51'0 0.0
2018-Jul-17 23:00N 50°58' E 001°51'0 0.0
2018-Jul-17 22:31N 50°58' E 001°51'0 0.0
2018-Jul-17 22:00N 50°58' E 001°51'0 0.0
2018-Jul-17 21:30N 50°58' E 001°51'0 0.0
2018-Jul-17 21:01N 50°58' E 001°51'0 0.0
2018-Jul-17 20:31N 50°58' E 001°51'4 8.5
2018-Jul-17 20:00N 50°58' E 001°44'918.7
2018-Jul-17 19:30N 51°02' E 001°31'917.0
2018-Jul-17 19:00N 51°07' E 001°20'0 0.0
2018-Jul-17 18:30N 51°07' E 001°20'0 0.4
2018-Jul-17 18:00N 51°07' E 001°20'714.4
2018-Jul-17 17:30N 51°05' E 001°31'918.2
2018-Jul-17 17:00N 50°59' E 001°43'510.8
2018-Jul-17 16:31N 50°58' E 001°51'0 0.0
2018-Jul-17 16:00N 50°58' E 001°51'1 2.1
2018-Jul-17 15:30N 50°58' E 001°49'1019.8
2018-Jul-17 15:00N 51°00' E 001°34'1019.3
2018-Jul-17 14:30N 51°06' E 001°22'2 2.7
2018-Jul-17 13:49N 51°07' E 001°20'0 0.0
2018-Jul-17 13:30N 51°07' E 001°20'2 5.0
2018-Jul-17 13:00N 51°07' E 001°24'918.2
2018-Jul-17 12:30N 51°02' E 001°36'917.5
2018-Jul-17 12:00N 50°58' E 001°49'1 2.6
2018-Jul-17 11:30N 50°58' E 001°51'0 0.0
2018-Jul-17 11:00N 50°58' E 001°51'3 6.0
2018-Jul-17 10:30N 50°58' E 001°46'816.6
2018-Jul-17 10:01N 51°01' E 001°34'918.3
2018-Jul-17 09:31N 51°06' E 001°22'2 3.2
2018-Jul-17 08:59N 51°07' E 001°20'0 0.0
2018-Jul-17 08:30N 51°07' E 001°20'2 4.5
2018-Jul-17 08:00N 51°07' E 001°24'918.5
2018-Jul-17 07:30N 51°02' E 001°36'918.0
2018-Jul-17 07:00N 50°58' E 001°49'1 2.6
2018-Jul-17 06:30N 50°58' E 001°51'0 0.0
2018-Jul-17 06:00N 50°58' E 001°51'3 6.8
2018-Jul-17 05:30N 50°58' E 001°46'919.1
2018-Jul-17 05:01N 51°02' E 001°32'918.1
2018-Jul-17 04:30N 51°07' E 001°20'0 0.2
2018-Jul-17 03:53N 51°07' E 001°20'0 0.0
2018-Jul-17 03:25N 51°07' E 001°20'2 4.1
2018-Jul-17 03:01N 51°07' E 001°23'715.0
2018-Jul-17 02:31N 51°04' E 001°33'815.8
2018-Jul-17 02:01N 50°59' E 001°44'5 9.6
2018-Jul-17 01:30N 50°58' E 001°51'0 0.0
2018-Jul-17 01:00N 50°58' E 001°51'0 0.0
2018-Jul-17 00:30N 50°58' E 001°51'0 0.0
2018-Jul-16 23:30N 50°58' E 001°51'0 0.0
2018-Jul-16 23:00N 50°58' E 001°51'0 0.0
2018-Jul-16 22:30N 50°58' E 001°51'0 0.0
2018-Jul-16 22:00N 50°58' E 001°51'0 0.0
2018-Jul-16 21:30N 50°58' E 001°51'0 0.0
2018-Jul-16 21:00N 50°58' E 001°51'0 0.0
2018-Jul-16 20:30N 50°58' E 001°51'2 3.9
2018-Jul-16 20:01N 50°58' E 001°48'917.0
2018-Jul-16 19:31N 51°01' E 001°35'1019.1
2018-Jul-16 19:01N 51°07' E 001°23'2 3.6
2018-Jul-16 18:30N 51°07' E 001°20'0 0.0
2018-Jul-16 17:59N 51°07' E 001°20'1 2.1
2018-Jul-16 17:30N 51°07' E 001°22'816.5
2018-Jul-16 17:00N 51°04' E 001°34'714.4
2018-Jul-16 16:30N 50°59' E 001°42'611.0
2018-Jul-16 16:00N 50°58' E 001°51'0 0.0
2018-Jul-16 15:30N 50°58' E 001°51'0 0.6
2018-Jul-16 15:00N 50°58' E 001°51'918.6
2018-Jul-16 14:30N 51°00' E 001°36'1019.4
2018-Jul-16 14:00N 51°06' E 001°24'3 5.4
2018-Jul-16 13:30N 51°07' E 001°20'0 0.0
2018-Jul-16 13:00N 51°07' E 001°20'5 9.8
2018-Jul-16 12:30N 51°06' E 001°27'1019.1
2018-Jul-16 12:00N 51°01' E 001°40'714.8
2018-Jul-16 11:31N 50°58' E 001°51'0 0.1
2018-Jul-16 11:00N 50°58' E 001°51'0 0.7
2018-Jul-16 10:31N 50°58' E 001°51'816.6
2018-Jul-16 10:01N 50°59' E 001°37'919.0
2018-Jul-16 09:31N 51°05' E 001°26'4 7.8
2018-Jul-16 08:58N 51°07' E 001°20'0 0.0
2018-Jul-16 08:26N 51°07' E 001°20'3 5.9
2018-Jul-16 08:00N 51°07' E 001°24'1019.4
2018-Jul-16 07:30N 51°01' E 001°37'918.2
2018-Jul-16 07:01N 50°58' E 001°50'0 0.9
2018-Jul-16 06:31N 50°58' E 001°51'0 0.0
2018-Jul-16 06:01N 50°58' E 001°51'0 0.0
2018-Jul-16 05:31N 50°58' E 001°51'0 0.0
2018-Jul-16 05:00N 50°58' E 001°51'0 0.0
2018-Jul-16 04:31N 50°58' E 001°51'0 0.0
2018-Jul-16 04:01N 50°58' E 001°51'0 0.0
2018-Jul-16 03:31N 50°58' E 001°51'0 0.0
2018-Jul-16 03:01N 50°58' E 001°51'0 0.0
2018-Jul-16 02:30N 50°58' E 001°51'0 0.0
2018-Jul-16 02:01N 50°58' E 001°51'0 0.0
2018-Jul-16 01:31N 50°58' E 001°51'0 0.0
2018-Jul-16 01:01N 50°58' E 001°51'0 0.0
2018-Jul-16 00:31N 50°58' E 001°51'0 0.0
2018-Jul-16 00:01N 50°58' E 001°51'0 0.0
2018-Jul-15 23:30N 50°58' E 001°51'0 0.0
2018-Jul-15 23:00N 50°58' E 001°51'0 0.0
2018-Jul-15 22:30N 50°58' E 001°51'0 0.0
2018-Jul-15 22:01N 50°58' E 001°51'0 0.0
2018-Jul-15 21:31N 50°58' E 001°51'0 0.5
2018-Jul-15 21:00N 50°58' E 001°51'0 0.1
2018-Jul-15 20:31N 50°58' E 001°51'0 0.0
2018-Jul-15 20:00N 50°58' E 001°51'2 3.0
2018-Jul-15 19:30N 50°58' E 001°49'816.6
2018-Jul-15 19:01N 50°60' E 001°36'1019.4
2018-Jul-15 18:30N 51°06' E 001°24'3 5.6
2018-Jul-15 17:59N 51°07' E 001°20'0 0.2
2018-Jul-15 17:29N 51°07' E 001°20'715.3
2018-Jul-15 17:00N 51°06' E 001°31'816.5
2018-Jul-15 16:30N 50°60' E 001°41'713.4
2018-Jul-15 16:00N 50°58' E 001°51'0 0.0
2018-Jul-15 15:30N 50°58' E 001°51'1 1.5
2018-Jul-15 15:00N 50°58' E 001°50'919.1
2018-Jul-15 14:31N 51°00' E 001°35'1019.2
2018-Jul-15 14:01N 51°06' E 001°23'2 4.3
2018-Jul-15 13:28N 51°07' E 001°20'0 0.1
2018-Jul-15 13:01N 51°07' E 001°20'714.2
2018-Jul-15 12:30N 51°05' E 001°30'918.7
2018-Jul-15 12:00N 50°59' E 001°43'510.6
2018-Jul-15 11:31N 50°58' E 001°51'0 0.0
2018-Jul-15 11:01N 50°58' E 001°51'2 3.3
2018-Jul-15 10:30N 50°58' E 001°48'917.8
2018-Jul-15 10:00N 51°01' E 001°35'918.4
2018-Jul-15 09:30N 51°06' E 001°22'2 4.6
2018-Jul-15 09:00N 51°07' E 001°20'0 0.0
2018-Jul-15 08:30N 51°07' E 001°20'1 3.0
2018-Jul-15 08:00N 51°07' E 001°22'1019.9
2018-Jul-15 07:30N 51°03' E 001°36'918.3
2018-Jul-15 07:00N 50°58' E 001°49'1 2.3
2018-Jul-15 06:30N 50°58' E 001°51'0 0.0
2018-Jul-15 06:00N 50°58' E 001°51'0 0.0
2018-Jul-15 05:30N 50°58' E 001°51'0 0.0
2018-Jul-15 05:00N 50°58' E 001°51'0 0.0
2018-Jul-15 04:30N 50°58' E 001°51'0 0.0
2018-Jul-15 04:00N 50°58' E 001°51'0 0.0
2018-Jul-15 03:30N 50°58' E 001°51'0 0.0
2018-Jul-15 03:00N 50°58' E 001°51'0 0.0
2018-Jul-15 02:30N 50°58' E 001°51'0 0.0
2018-Jul-15 02:00N 50°58' E 001°51'0 0.0
2018-Jul-15 01:30N 50°58' E 001°51'0 0.0
2018-Jul-15 01:00N 50°58' E 001°51'0 0.0
2018-Jul-15 00:30N 50°58' E 001°51'0 0.0
2018-Jul-15 00:00N 50°58' E 001°51'0 0.0
2018-Jul-14 23:30N 50°58' E 001°51'0 0.0
2018-Jul-14 23:00N 50°58' E 001°51'0 0.0
2018-Jul-14 22:30N 50°58' E 001°51'0 0.0
2018-Jul-14 22:00N 50°58' E 001°51'0 0.0
2018-Jul-14 21:31N 50°58' E 001°51'0 0.0
2018-Jul-14 21:00N 50°58' E 001°51'0 0.0
2018-Jul-14 20:30N 50°58' E 001°51'0 0.0
2018-Jul-14 20:00N 50°58' E 001°51'714.6
2018-Jul-14 19:30N 50°59' E 001°39'917.9
2018-Jul-14 19:00N 51°03' E 001°27'612.3
2018-Jul-14 18:30N 51°07' E 001°20'0 0.0
2018-Jul-14 18:00N 51°07' E 001°20'612.2
2018-Jul-14 17:31N 51°07' E 001°30'918.5
2018-Jul-14 17:01N 51°00' E 001°40'714.0
2018-Jul-14 16:30N 50°58' E 001°51'0 0.0
2018-Jul-14 16:00N 50°58' E 001°51'4 7.2
2018-Jul-14 15:30N 50°58' E 001°45'917.6
2018-Jul-14 15:00N 51°02' E 001°33'918.8
2018-Jul-14 14:30N 51°07' E 001°20'1 0.8
2018-Jul-14 13:30N 51°07' E 001°20'4 8.4
2018-Jul-14 13:00N 51°06' E 001°27'918.5
2018-Jul-14 12:30N 51°01' E 001°39'815.7
2018-Jul-14 12:00N 50°58' E 001°50'1 1.7
2018-Jul-14 11:30N 50°58' E 001°52'0 0.0
2018-Jul-14 11:00N 50°58' E 001°52'3 6.5
2018-Jul-14 10:31N 50°58' E 001°47'918.1
2018-Jul-14 10:01N 51°01' E 001°33'918.5
2018-Jul-14 09:31N 51°07' E 001°21'1 2.0
2018-Jul-14 09:00N 51°07' E 001°20'0 0.0
2018-Jul-14 08:30N 51°07' E 001°20'5 9.7
2018-Jul-14 08:00N 51°05' E 001°27'1019.5
2018-Jul-14 07:30N 50°60' E 001°40'714.3
2018-Jul-14 07:00N 50°58' E 001°51'0 0.1
2018-Jul-14 06:30N 50°58' E 001°51'0 0.0
2018-Jul-14 06:00N 50°58' E 001°51'510.7
2018-Jul-14 05:30N 50°58' E 001°43'918.4
2018-Jul-14 05:00N 51°03' E 001°30'815.1
2018-Jul-14 04:30N 51°07' E 001°20'0 0.0
2018-Jul-14 04:00N 51°07' E 001°20'0 0.0
2018-Jul-14 03:30N 51°07' E 001°20'0 1.0
2018-Jul-14 03:00N 51°07' E 001°21'815.2
2018-Jul-14 02:30N 51°06' E 001°33'815.5
2018-Jul-14 02:00N 50°60' E 001°41'612.7
2018-Jul-14 01:31N 50°58' E 001°51'0 0.4
2018-Jul-14 01:00N 50°58' E 001°51'0 0.0
2018-Jul-14 00:30N 50°58' E 001°51'0 0.0
2018-Jul-14 00:00N 50°58' E 001°51'0 0.0
2018-Jul-13 23:30N 50°58' E 001°51'0 0.0
2018-Jul-13 23:00N 50°58' E 001°51'0 0.0
2018-Jul-13 22:30N 50°58' E 001°51'0 0.0
2018-Jul-13 22:00N 50°58' E 001°51'0 0.0
2018-Jul-13 21:30N 50°58' E 001°51'0 0.0
2018-Jul-13 21:00N 50°58' E 001°51'0 0.0
2018-Jul-13 20:30N 50°58' E 001°51'1 1.8
2018-Jul-13 20:00N 50°58' E 001°50'816.6
2018-Jul-13 19:30N 50°59' E 001°37'918.5
2018-Jul-13 19:00N 51°05' E 001°25'4 6.2
2018-Jul-13 18:22N 51°07' E 001°20'0 0.0
2018-Jul-13 17:58N 51°07' E 001°20'613.2
2018-Jul-13 17:31N 51°05' E 001°29'1019.7
2018-Jul-13 17:00N 50°59' E 001°42'611.9
2018-Jul-13 16:30N 50°58' E 001°51'0 0.0
2018-Jul-13 16:00N 50°58' E 001°51'1 2.6
2018-Jul-13 15:30N 50°58' E 001°49'612.8
2018-Jul-13 15:00N 50°59' E 001°39'1414.4
2018-Jul-13 14:00N 51°07' E 001°20'0 0.0
2018-Jul-13 13:29N 51°07' E 001°20'1 1.6
2018-Jul-13 13:00N 51°07' E 001°21'917.1
2018-Jul-13 12:30N 51°05' E 001°34'918.3
2018-Jul-13 12:00N 50°58' E 001°45'4 8.0
2018-Jul-13 11:30N 50°58' E 001°51'0 0.0
2018-Jul-13 11:00N 50°58' E 001°51'0 0.7
2018-Jul-13 10:30N 50°58' E 001°51'918.6
2018-Jul-13 10:00N 50°59' E 001°36'918.2
2018-Jul-13 09:30N 51°05' E 001°25'4 7.7
2018-Jul-13 09:00N 51°07' E 001°20'0 0.0
2018-Jul-13 08:30N 51°07' E 001°20'0 0.9
2018-Jul-13 08:00N 51°07' E 001°21'918.1
2018-Jul-13 07:30N 51°04' E 001°34'1019.2
2018-Jul-13 07:00N 50°58' E 001°46'3 6.0
2018-Jul-13 06:31N 50°58' E 001°51'0 0.0
2018-Jul-13 06:00N 50°58' E 001°51'4 8.5
2018-Jul-13 05:30N 50°58' E 001°44'816.9
2018-Jul-13 05:00N 51°01' E 001°32'918.7
2018-Jul-13 04:30N 51°07' E 001°21'1 1.0
2018-Jul-13 03:59N 51°07' E 001°20'0 0.0
2018-Jul-13 03:21N 51°07' E 001°20'1 3.4
2018-Jul-13 03:00N 51°07' E 001°22'714.9
2018-Jul-13 02:30N 51°05' E 001°33'815.4
2018-Jul-13 02:00N 50°59' E 001°41'612.2
2018-Jul-13 01:30N 50°58' E 001°51'0 0.1
2018-Jul-13 01:01N 50°58' E 001°51'0 0.0
2018-Jul-13 00:31N 50°58' E 001°51'0 0.0
2018-Jul-13 00:01N 50°58' E 001°51'0 0.0
2018-Jul-12 23:31N 50°58' E 001°51'0 0.0
2018-Jul-12 23:00N 50°58' E 001°51'0 0.0
2018-Jul-12 22:31N 50°58' E 001°51'0 0.0
2018-Jul-12 22:01N 50°58' E 001°51'0 0.0
2018-Jul-12 21:31N 50°58' E 001°51'0 0.0
2018-Jul-12 21:00N 50°58' E 001°51'0 0.0
2018-Jul-12 20:30N 50°58' E 001°51'2 4.6
2018-Jul-12 20:00N 50°58' E 001°47'917.2
2018-Jul-12 19:31N 50°60' E 001°34'918.7
2018-Jul-12 19:00N 51°06' E 001°23'2 4.3
2018-Jul-12 18:29N 51°07' E 001°20'0 0.0
2018-Jul-12 18:00N 51°07' E 001°20'611.4
2018-Jul-12 17:30N 51°06' E 001°29'1019.3
2018-Jul-12 17:01N 51°00' E 001°41'713.2
2018-Jul-12 16:30N 50°58' E 001°51'0 0.0
2018-Jul-12 16:00N 50°58' E 001°51'0 0.8
2018-Jul-12 15:30N 50°58' E 001°50'714.2
2018-Jul-12 15:00N 50°58' E 001°39'918.5
2018-Jul-12 14:30N 51°05' E 001°28'611.7
2018-Jul-12 14:00N 51°07' E 001°20'2 1.6
2018-Jul-12 12:53N 51°07' E 001°23'616.6
2018-Jul-12 12:31N 51°06' E 001°33'918.3
2018-Jul-12 12:00N 50°59' E 001°43'510.2
2018-Jul-12 11:30N 50°58' E 001°51'0 0.0
2018-Jul-12 11:01N 50°58' E 001°51'0 0.8
2018-Jul-12 10:31N 50°58' E 001°50'917.8
2018-Jul-12 10:01N 51°00' E 001°37'919.0
2018-Jul-12 09:31N 51°06' E 001°24'3 2.1
2018-Jul-12 08:04N 51°07' E 001°20'110.0
2018-Jul-12 07:59N 51°07' E 001°22'918.7
2018-Jul-12 07:30N 51°02' E 001°34'  

Dump ship's entire track history